createdAt,value
2018-04-16T03:56:52.847Z,12.60
2018-04-16T03:59:19.993Z,13.38
2018-04-16T04:01:46.356Z,12.55
2018-04-16T04:04:12.721Z,12.57
2018-04-16T04:06:43.249Z,12.50
2018-04-16T04:09:09.616Z,12.40
2018-04-16T04:11:36.769Z,11.93
2018-04-16T04:14:03.903Z,12.50
2018-04-16T04:16:30.295Z,11.60
2018-04-16T04:18:56.696Z,11.05
2018-04-16T04:21:23.824Z,12.20
2018-04-16T04:24:02.393Z,11.95
2018-04-16T04:26:41.145Z,16.12
2018-04-16T04:29:19.944Z,12.75
2018-04-16T04:31:46.319Z,11.63
2018-04-16T04:34:12.708Z,11.97
2018-04-16T04:36:39.067Z,11.65
2018-04-16T04:39:05.483Z,12.95
2018-04-16T04:41:31.883Z,12.25
2018-04-16T04:43:58.291Z,12.23
2018-04-16T04:46:24.705Z,11.12
2018-04-16T04:48:51.072Z,11.48
2018-04-16T04:51:17.483Z,11.40
2018-04-16T04:53:43.831Z,11.35
2018-04-16T04:56:10.272Z,13.82
2018-04-16T04:58:36.671Z,11.73
2018-04-16T05:01:03.047Z,12.55
2018-04-16T05:03:29.467Z,10.85
2018-04-16T05:05:55.835Z,11.60
2018-04-16T05:08:22.967Z,11.77
2018-04-16T05:10:49.336Z,10.95
2018-04-16T05:13:15.720Z,11.27
2018-04-16T05:15:42.107Z,11.50
2018-04-16T05:18:08.462Z,10.88
2018-04-16T05:20:34.848Z,12.00
2018-04-16T05:23:01.954Z,12.23
2018-04-16T05:25:28.333Z,11.70
2018-04-16T05:27:55.473Z,11.55
2018-04-16T05:30:21.904Z,12.10
2018-04-16T05:32:48.311Z,11.60
2018-04-16T05:35:14.725Z,13.77
2018-04-16T05:37:41.125Z,11.15
2018-04-16T05:40:08.235Z,11.98
2018-04-16T05:42:34.657Z,12.63
2018-04-16T05:45:01.045Z,11.75
2018-04-16T05:47:28.186Z,12.95
2018-04-16T05:49:55.299Z,10.80
2018-04-16T05:52:21.695Z,13.05
2018-04-16T05:54:48.084Z,11.05
2018-04-16T05:57:14.488Z,15.73
2018-04-16T05:59:40.867Z,11.57
2018-04-16T06:02:07.224Z,13.18
2018-04-16T06:04:33.632Z,15.32
2018-04-16T06:07:00.004Z,12.43
2018-04-16T06:09:26.387Z,11.35
2018-04-16T06:11:52.768Z,12.60
2018-04-16T06:14:19.132Z,12.52
2018-04-16T06:16:45.570Z,13.45
2018-04-16T06:19:11.975Z,11.50
2018-04-16T06:21:38.353Z,13.05
2018-04-16T06:24:04.728Z,11.83
2018-04-16T06:26:31.119Z,13.05
2018-04-16T06:28:57.491Z,13.23
2018-04-16T06:31:23.872Z,13.07
2018-04-16T06:33:50.248Z,12.75
2018-04-16T06:36:17.346Z,14.95
2018-04-16T06:38:43.778Z,11.50
2018-04-16T06:41:10.131Z,10.75
2018-04-16T06:43:36.513Z,11.15
2018-04-16T06:46:02.976Z,15.75
2018-04-16T06:48:29.438Z,11.90
2018-04-16T06:50:55.932Z,12.67
2018-04-16T06:53:23.103Z,14.07
2018-04-16T06:55:49.492Z,13.45
2018-04-16T06:58:16.604Z,15.05
2018-04-16T07:00:43.057Z,16.00
2018-04-16T07:03:10.229Z,15.55
2018-04-16T07:05:37.343Z,15.30
2018-04-16T07:08:03.779Z,16.98
2018-04-16T07:10:30.169Z,21.33
2018-04-16T07:12:56.569Z,18.42
2018-04-16T07:15:22.935Z,19.60
2018-04-16T07:17:49.377Z,19.23
2018-04-16T07:20:15.732Z,20.10
2018-04-16T07:22:42.097Z,21.93
2018-04-16T07:25:08.480Z,23.45
2018-04-16T07:27:34.845Z,21.90
2018-04-16T07:30:01.236Z,21.50
2018-04-16T07:32:27.617Z,22.45
2018-04-16T07:34:53.990Z,23.98
2018-04-16T07:37:21.111Z,24.00
2018-04-16T07:39:47.775Z,25.05
2018-04-16T07:42:14.907Z,24.25
2018-04-16T07:44:41.300Z,25.90
2018-04-16T07:47:07.665Z,27.58
2018-04-16T07:49:34.040Z,28.83
2018-04-16T07:52:00.460Z,27.80
2018-04-16T07:54:27.622Z,27.75
2018-04-16T07:56:54.728Z,28.17
2018-04-16T07:59:21.318Z,26.42
2018-04-16T08:01:47.680Z,28.45
2018-04-16T08:04:14.059Z,28.20
2018-04-16T08:06:41.244Z,29.12
2018-04-16T08:09:08.329Z,29.52
2018-04-16T08:11:34.759Z,29.35
2018-04-16T08:14:01.163Z,30.65
2018-04-16T08:16:27.606Z,31.50
2018-04-16T08:18:53.989Z,31.33
2018-04-16T08:21:20.343Z,31.92
2018-04-16T08:23:47.475Z,31.75
2018-04-16T08:26:13.845Z,30.65
2018-04-16T08:28:40.232Z,32.00
2018-04-16T08:31:06.596Z,31.50
2018-04-16T08:33:33.733Z,30.90
2018-04-16T08:36:00.915Z,31.52
2018-04-16T08:38:27.296Z,30.88
2018-04-16T08:40:53.663Z,30.52
2018-04-16T08:43:20.795Z,29.50
2018-04-16T08:45:47.154Z,29.48
2018-04-16T08:48:14.299Z,32.30
2018-04-16T08:50:41.437Z,30.50
2018-04-16T08:53:07.800Z,30.42
2018-04-16T08:55:41.211Z,29.83
2018-04-16T08:58:07.581Z,27.80
2018-04-16T09:00:33.989Z,28.55
2018-04-16T09:03:00.357Z,28.83
2018-04-16T09:05:26.783Z,27.25
2018-04-16T09:07:53.182Z,26.55
2018-04-16T09:10:19.544Z,26.02
2018-04-16T09:12:45.944Z,28.50
2018-04-16T09:15:12.312Z,27.40
2018-04-16T09:17:38.731Z,25.80
2018-04-16T09:20:05.091Z,24.30
2018-04-16T09:22:31.493Z,26.27
2018-04-16T09:24:57.894Z,26.37
2018-04-16T09:27:25.003Z,25.62
2018-04-16T09:29:51.407Z,23.02
2018-04-16T09:32:17.800Z,23.08
2018-04-16T09:34:44.908Z,24.50
2018-04-16T09:37:11.316Z,26.95
2018-04-16T09:39:37.728Z,25.67
2018-04-16T09:42:04.869Z,27.23
2018-04-16T09:44:31.968Z,28.20
2018-04-16T09:46:58.399Z,27.30
2018-04-16T09:49:24.793Z,28.00
2018-04-16T09:51:51.902Z,27.50
2018-04-16T09:54:18.284Z,27.35
2018-04-16T09:56:45.419Z,27.77
2018-04-16T09:59:12.559Z,28.37
2018-04-16T10:01:39.012Z,26.85
2018-04-16T10:04:06.149Z,28.30
2018-04-16T10:06:32.599Z,26.50
2018-04-16T10:08:59.732Z,27.80
2018-04-16T10:11:26.190Z,28.90
2018-04-16T10:13:53.308Z,27.70
2018-04-16T10:16:19.705Z,25.62
2018-04-16T10:18:46.103Z,25.83
2018-04-16T10:21:13.221Z,26.45
2018-04-16T10:23:39.621Z,24.85
2018-04-16T10:26:06.011Z,27.00
2018-04-16T10:28:32.400Z,26.35
2018-04-16T10:30:58.760Z,27.45
2018-04-16T10:33:25.158Z,25.43
2018-04-16T10:35:51.548Z,26.40
2018-04-16T10:38:17.910Z,25.10
2018-04-16T10:40:44.308Z,27.20
2018-04-16T10:43:10.697Z,23.70
2018-04-16T10:45:37.108Z,22.25
2018-04-16T10:48:03.502Z,20.75
2018-04-16T10:50:29.888Z,20.67
2018-04-16T10:52:56.304Z,20.80
2018-04-16T10:55:23.438Z,19.62
2018-04-16T10:57:50.567Z,20.03
2018-04-16T11:00:16.939Z,17.58
2018-04-16T11:02:44.104Z,16.10
2018-04-16T11:05:10.518Z,16.37
2018-04-16T11:07:37.655Z,16.83
2018-04-16T11:10:04.059Z,17.33
2018-04-16T11:12:30.419Z,19.37
2018-04-16T11:14:56.808Z,19.77
2018-04-16T11:17:23.200Z,20.05
2018-04-16T11:19:50.341Z,20.73
2018-04-16T11:22:16.747Z,20.35
2018-04-16T11:24:43.112Z,20.42
2018-04-16T11:27:10.271Z,20.37
2018-04-16T11:29:37.410Z,21.48
2018-04-16T11:32:03.820Z,20.52
2018-04-16T11:34:30.179Z,21.55
2018-04-16T11:36:56.673Z,22.87
2018-04-16T11:39:23.071Z,23.48
2018-04-16T11:41:50.184Z,24.50
2018-04-16T11:44:16.567Z,24.75
2018-04-16T11:46:42.940Z,25.58
2018-04-16T11:49:09.329Z,26.45
2018-04-16T11:51:35.739Z,26.33
2018-04-16T11:54:02.888Z,23.08
2018-04-16T11:56:29.352Z,22.48
2018-04-16T11:58:55.730Z,22.30
2018-04-16T12:01:22.131Z,24.25
2018-04-16T12:03:48.511Z,23.55
2018-04-16T12:06:15.648Z,22.83
2018-04-16T12:08:42.020Z,21.65
2018-04-16T12:11:09.154Z,18.73
2018-04-16T12:13:35.580Z,17.13
2018-04-16T12:16:01.948Z,15.45
2018-04-16T12:18:29.127Z,17.67
2018-04-16T12:20:55.504Z,19.48
2018-04-16T12:23:21.896Z,19.20
2018-04-16T12:25:48.358Z,19.27
2018-04-16T12:28:14.743Z,19.70
2018-04-16T12:30:41.165Z,19.45
2018-04-16T12:33:08.355Z,19.30
2018-04-16T12:35:34.727Z,19.83
2018-04-16T12:38:01.136Z,16.98
2018-04-16T12:40:27.630Z,17.50
2018-04-16T12:42:54.727Z,17.92
2018-04-16T12:45:21.206Z,17.75
2018-04-16T12:47:48.351Z,18.23
2018-04-16T12:50:15.481Z,18.70
2018-04-16T12:52:41.907Z,17.15
2018-04-16T12:55:08.331Z,17.60
2018-04-16T12:57:34.764Z,18.05
2018-04-16T13:00:01.161Z,17.52
2018-04-16T13:02:27.623Z,17.02
2018-04-16T13:04:54.063Z,16.27
2018-04-16T13:07:20.497Z,16.62
2018-04-16T13:09:46.856Z,16.92
2018-04-16T13:12:13.284Z,17.73
2018-04-16T13:14:39.676Z,17.85
2018-04-16T13:17:06.096Z,16.70
2018-04-16T13:19:33.210Z,16.62
2018-04-16T13:21:59.602Z,17.30
2018-04-16T13:24:26.009Z,17.75
2018-04-16T13:26:53.115Z,19.50
2018-04-16T13:29:19.514Z,17.10
2018-04-16T13:31:45.885Z,18.08
2018-04-16T13:34:12.300Z,17.25
2018-04-16T13:36:38.688Z,18.37
2018-04-16T13:39:05.825Z,18.62
2018-04-16T13:41:32.236Z,21.13
2018-04-16T13:43:58.596Z,20.80
2018-04-16T13:46:25.716Z,20.33
2018-04-16T13:48:52.097Z,22.13
2018-04-16T13:51:19.212Z,21.50
2018-04-16T13:53:45.604Z,21.90
2018-04-16T13:56:12.097Z,22.48
2018-04-16T13:58:38.492Z,21.42
2018-04-16T14:01:04.896Z,21.12
2018-04-16T14:03:31.280Z,21.95
2018-04-16T14:05:57.678Z,19.90
2018-04-16T14:08:24.079Z,20.52
2018-04-16T14:10:51.184Z,20.70
2018-04-16T14:13:17.566Z,21.42
2018-04-16T14:15:44.669Z,20.70
2018-04-16T14:18:11.068Z,18.30
2018-04-16T14:20:37.467Z,18.27
2018-04-16T14:23:03.851Z,18.25
2018-04-16T14:25:30.239Z,17.85
2018-04-16T14:27:56.636Z,16.92
2018-04-16T14:30:23.023Z,17.25
2018-04-16T14:32:50.161Z,16.35
2018-04-16T14:35:17.324Z,16.95
2018-04-16T14:37:44.439Z,16.50
2018-04-16T14:40:10.853Z,17.62
2018-04-16T14:42:37.265Z,17.30
2018-04-16T14:45:03.642Z,17.23
2018-04-16T14:47:30.007Z,17.60
2018-04-16T14:49:57.137Z,17.73
2018-04-16T14:52:23.512Z,16.70
2018-04-16T14:54:49.896Z,13.00
2018-04-16T14:57:16.325Z,13.40
2018-04-16T14:59:42.740Z,14.05
2018-04-16T15:02:09.163Z,14.67
2018-04-16T15:04:35.607Z,17.95
2018-04-16T15:07:02.010Z,18.25
2018-04-16T15:09:28.419Z,18.02
2018-04-16T15:11:55.567Z,19.62
2018-04-16T15:14:21.963Z,18.80
2018-04-16T15:16:48.320Z,19.75
2018-04-16T15:19:14.744Z,20.37
2018-04-16T15:21:41.111Z,19.67
2018-04-16T15:24:08.245Z,21.30
2018-04-16T15:26:34.616Z,21.70
2018-04-16T15:29:01.008Z,23.42
2018-04-16T15:31:27.398Z,25.30
2018-04-16T15:33:53.780Z,26.57
2018-04-16T15:36:20.170Z,23.85
2018-04-16T15:38:46.543Z,23.90
2018-04-16T15:41:12.969Z,23.58
2018-04-16T15:43:39.399Z,23.90
2018-04-16T15:46:05.789Z,23.42
2018-04-16T15:48:32.195Z,22.85
2018-04-16T15:50:58.647Z,22.27
2018-04-16T15:53:25.799Z,23.38
2018-04-16T15:55:52.961Z,21.30
2018-04-16T15:58:19.347Z,22.67
2018-04-16T16:00:45.824Z,22.80
2018-04-16T16:03:12.301Z,21.98
2018-04-16T16:05:38.842Z,20.92
2018-04-16T16:08:05.286Z,21.70
2018-04-16T16:10:31.712Z,20.25
2018-04-16T16:12:58.108Z,18.37
2018-04-16T16:15:24.488Z,18.95
2018-04-16T16:17:50.874Z,20.17
2018-04-16T16:20:17.236Z,18.02
2018-04-16T16:22:43.624Z,19.20
2018-04-16T16:25:10.753Z,17.55
2018-04-16T16:27:37.145Z,17.08
2018-04-16T16:30:03.572Z,17.65
2018-04-16T16:32:29.933Z,17.90
2018-04-16T16:34:56.322Z,17.85
2018-04-16T16:37:22.705Z,17.60
2018-04-16T16:39:49.119Z,16.90
2018-04-16T16:42:15.515Z,16.25
2018-04-16T16:44:42.622Z,18.05
2018-04-16T16:47:09.022Z,18.27
2018-04-16T16:49:35.392Z,17.70
2018-04-16T16:52:01.776Z,17.70
2018-04-16T16:54:28.901Z,16.60
2018-04-16T16:56:55.316Z,16.37
2018-04-16T16:59:21.707Z,15.60
2018-04-16T17:01:48.060Z,15.40
2018-04-16T17:04:14.459Z,15.50
2018-04-16T17:06:40.901Z,15.38
2018-04-16T17:09:07.296Z,15.05
2018-04-16T17:11:33.705Z,14.07
2018-04-16T17:14:00.115Z,14.18
2018-04-16T17:16:26.539Z,14.75
2018-04-16T17:18:52.912Z,14.38
2018-04-16T17:21:19.480Z,14.15
2018-04-16T17:23:45.839Z,13.40
2018-04-16T17:26:12.284Z,12.83
2018-04-16T17:28:38.656Z,10.07
2018-04-16T17:31:05.034Z,8.32
2018-04-16T17:33:32.184Z,8.20
2018-04-16T17:35:59.303Z,7.32
2018-04-16T17:38:25.697Z,7.18
2018-04-16T17:40:52.145Z,6.93
2018-04-16T17:43:18.564Z,8.10
2018-04-16T17:45:44.932Z,7.03
2018-04-16T17:48:11.309Z,6.43
2018-04-16T17:50:38.448Z,6.70
2018-04-16T17:53:05.604Z,6.50
2018-04-16T17:55:32.736Z,6.65
2018-04-16T17:57:59.136Z,6.50
2018-04-16T18:00:25.509Z,5.80
2018-04-16T18:02:51.872Z,5.90
2018-04-16T18:05:18.264Z,5.65
2018-04-16T18:07:44.687Z,5.15
2018-04-16T18:10:11.060Z,5.90
2018-04-16T18:12:38.216Z,5.22
2018-04-16T18:15:05.373Z,5.85
2018-04-16T18:17:31.756Z,4.50
2018-04-16T18:19:58.144Z,5.40
2018-04-16T18:22:24.536Z,5.25
2018-04-16T18:24:50.951Z,5.50
2018-04-16T18:27:17.378Z,5.28
2018-04-16T18:29:43.742Z,5.47
2018-04-16T18:32:10.148Z,5.18
2018-04-16T18:34:36.511Z,5.30
2018-04-16T18:37:02.912Z,5.40
2018-04-16T18:39:29.300Z,5.50
2018-04-16T18:41:56.429Z,5.37
2018-04-16T18:44:22.930Z,5.90
2018-04-16T18:46:49.329Z,5.68
2018-04-16T18:49:16.491Z,5.62
2018-04-16T18:51:42.864Z,5.57
2018-04-16T18:54:09.306Z,5.85
2018-04-16T18:56:35.675Z,6.05
2018-04-16T18:59:02.872Z,6.60
2018-04-16T19:01:29.269Z,6.07
2018-04-16T19:03:56.397Z,6.60
2018-04-16T19:06:23.595Z,6.30
2018-04-16T19:08:50.044Z,6.93
2018-04-16T19:11:16.474Z,6.80
2018-04-16T19:13:42.855Z,6.82
2018-04-16T19:16:09.313Z,8.03
2018-04-16T19:18:35.656Z,7.10
2018-04-16T19:24:02.385Z,7.30
2018-04-16T19:26:29.581Z,7.40
2018-04-16T19:28:56.018Z,7.07
2018-04-16T19:31:22.396Z,6.97
2018-04-16T19:33:54.849Z,7.67
2018-04-16T19:36:21.325Z,6.70
2018-04-16T19:38:49.337Z,7.20
2018-04-16T19:41:15.775Z,8.23
2018-04-16T19:43:42.216Z,7.55
2018-04-16T19:46:08.632Z,7.78
2018-04-16T19:48:40.982Z,7.70
2018-04-16T19:51:08.134Z,7.85
2018-04-16T19:53:35.268Z,7.75
2018-04-16T19:56:07.884Z,9.00
2018-04-16T19:58:34.316Z,10.63
2018-04-16T20:01:00.697Z,18.12
2018-04-16T20:03:33.200Z,36.92
2018-04-16T20:05:59.656Z,54.05
2018-04-16T20:08:26.071Z,46.10
2018-04-16T20:10:52.489Z,24.30
2018-04-16T20:13:18.879Z,24.77
2018-04-16T20:15:45.265Z,19.65
2018-04-16T20:18:11.649Z,14.98
2018-04-16T20:20:38.008Z,17.90
2018-04-16T20:23:04.412Z,11.73
2018-04-16T20:25:30.777Z,9.43
2018-04-16T20:27:57.175Z,8.50
2018-04-16T20:30:23.548Z,8.20
2018-04-16T20:32:49.999Z,8.65
2018-04-16T20:35:16.399Z,10.27
2018-04-16T20:37:42.788Z,10.60
2018-04-16T20:40:09.920Z,10.38
2018-04-16T20:42:36.319Z,9.45
2018-04-16T20:45:02.745Z,9.60
2018-04-16T20:47:29.300Z,9.52
2018-04-16T20:49:55.700Z,9.48
2018-04-16T20:52:22.109Z,9.35
2018-04-16T20:54:49.257Z,8.87
2018-04-16T20:57:16.380Z,8.70
2018-04-16T20:59:42.764Z,8.77
2018-04-16T21:02:09.170Z,8.23
2018-04-16T21:04:36.278Z,7.50
2018-04-16T21:07:21.116Z,8.82
2018-04-16T21:09:47.483Z,7.10
2018-04-16T21:12:13.905Z,6.90
2018-04-16T21:14:40.284Z,7.00
2018-04-16T21:17:06.665Z,8.30
2018-04-16T21:19:33.089Z,7.40
2018-04-16T21:21:59.520Z,8.07
2018-04-16T21:24:25.924Z,9.18
2018-04-16T21:26:53.072Z,10.20
2018-04-16T21:29:19.451Z,10.70
2018-04-16T21:31:45.840Z,11.57
2018-04-16T21:34:12.952Z,13.20
2018-04-16T21:36:39.349Z,12.48
2018-04-16T21:39:05.729Z,13.07
2018-04-16T21:41:32.124Z,12.73
2018-04-16T21:43:58.501Z,13.32
2018-04-16T21:46:24.936Z,12.50
2018-04-16T21:48:51.312Z,12.95
2018-04-16T21:51:18.414Z,13.40
2018-04-16T21:53:44.797Z,13.00
2018-04-16T21:56:11.180Z,12.85
2018-04-16T21:58:37.568Z,12.45
2018-04-16T22:01:03.953Z,11.52
2018-04-16T22:03:30.306Z,12.30
2018-04-16T22:05:56.716Z,12.02
2018-04-16T22:08:23.104Z,12.25
2018-04-16T22:10:49.520Z,11.65
2018-04-16T22:13:16.616Z,12.77
2018-04-16T22:15:42.999Z,12.10
2018-04-16T22:18:10.138Z,11.20
2018-04-16T22:20:36.539Z,12.80
2018-04-16T22:23:03.016Z,13.38
2018-04-16T22:25:29.467Z,11.80
2018-04-16T22:27:56.579Z,12.80
2018-04-16T22:30:23.004Z,12.30
2018-04-16T22:35:28.001Z,12.00
2018-04-16T22:37:55.141Z,11.98
2018-04-16T22:40:22.292Z,11.75
2018-04-16T22:42:48.718Z,11.70
2018-04-16T22:45:15.102Z,11.60
2018-04-16T22:47:41.495Z,11.85
2018-04-16T22:50:07.861Z,11.70
2018-04-16T22:52:34.241Z,12.18
2018-04-16T22:55:00.652Z,11.50
2018-04-16T22:57:27.057Z,11.32
2018-04-16T22:59:53.412Z,11.80
2018-04-16T23:02:19.800Z,12.40
2018-04-16T23:04:46.931Z,12.48
2018-04-16T23:07:13.323Z,12.43
2018-04-16T23:09:39.749Z,12.35
2018-04-16T23:12:06.124Z,11.80
2018-04-16T23:14:32.503Z,12.90
2018-04-16T23:16:59.605Z,12.93
2018-04-16T23:19:25.996Z,14.13
2018-04-16T23:21:52.367Z,13.25
2018-04-16T23:24:18.735Z,14.30
2018-04-16T23:26:45.880Z,13.70
2018-04-16T23:29:13.004Z,14.35
2018-04-16T23:31:39.404Z,14.20
2018-04-16T23:34:05.793Z,14.75
2018-04-16T23:36:32.160Z,14.38
2018-04-16T23:38:58.549Z,14.00
2018-04-16T23:41:24.905Z,15.23
2018-04-16T23:43:51.292Z,14.60
2018-04-16T23:46:17.688Z,16.10
2018-04-16T23:48:44.838Z,14.87
2018-04-16T23:51:11.970Z,15.20
2018-04-16T23:53:38.333Z,14.50
2018-04-16T23:56:04.723Z,13.50
2018-04-16T23:58:31.083Z,12.02
